createdAt,value
2022-09-23T00:00:35.635Z,29.02
2022-09-23T00:06:00.026Z,30.48
2022-09-23T00:11:08.819Z,44.08
2022-09-23T00:16:14.853Z,48.10
2022-09-23T00:21:18.373Z,45.10
2022-09-23T00:26:22.334Z,43.15
2022-09-23T00:31:30.191Z,37.40
2022-09-23T00:36:32.668Z,37.78
2022-09-23T00:41:35.440Z,29.92
2022-09-23T00:46:43.227Z,29.90
2022-09-23T00:51:51.305Z,27.20
2022-09-23T00:56:55.025Z,29.95
2022-09-23T01:01:58.302Z,28.25
2022-09-23T01:07:00.602Z,27.23
2022-09-23T01:12:27.178Z,24.63
2022-09-23T01:17:40.034Z,22.98
2022-09-23T01:22:46.744Z,23.90
2022-09-23T01:28:25.016Z,21.38
2022-09-23T01:34:06.294Z,20.70
2022-09-23T01:39:36.214Z,23.63
2022-09-23T01:44:48.377Z,22.88
2022-09-23T01:50:26.846Z,21.88
2022-09-23T01:55:35.653Z,20.83
2022-09-23T02:00:40.990Z,20.20
2022-09-23T02:05:48.192Z,27.42
2022-09-23T02:10:56.787Z,21.23
2022-09-23T02:16:02.383Z,21.40
2022-09-23T02:21:06.432Z,23.65
2022-09-23T02:26:13.610Z,20.15
2022-09-23T02:31:31.728Z,23.20
2022-09-23T02:36:49.740Z,21.38
2022-09-23T02:42:07.826Z,23.58
2022-09-23T02:47:10.738Z,19.67
2022-09-23T02:52:13.823Z,18.23
2022-09-23T02:57:16.176Z,16.90
2022-09-23T03:02:54.942Z,22.60
2022-09-23T03:08:29.933Z,19.40
2022-09-23T03:13:43.420Z,19.88
2022-09-23T03:19:00.927Z,21.00
2022-09-23T03:24:06.556Z,21.65
2022-09-23T03:29:11.347Z,23.33
2022-09-23T03:34:18.561Z,33.50
2022-09-23T03:39:26.931Z,31.27
2022-09-23T03:44:29.865Z,29.77
2022-09-23T03:49:36.287Z,28.70
2022-09-23T03:54:38.477Z,29.98
2022-09-23T03:59:41.487Z,29.33
2022-09-23T04:04:44.629Z,28.33
2022-09-23T04:09:47.109Z,24.40
2022-09-23T04:14:49.684Z,22.58
2022-09-23T04:19:52.214Z,22.08
2022-09-23T04:24:54.846Z,24.25
2022-09-23T04:29:57.295Z,24.65
2022-09-23T04:34:59.621Z,25.50
2022-09-23T04:40:02.833Z,21.58
2022-09-23T04:45:05.745Z,24.10
2022-09-23T04:50:08.746Z,18.42
2022-09-23T04:55:11.949Z,21.70
2022-09-23T05:00:15.480Z,27.35
2022-09-23T05:05:22.450Z,25.50
2022-09-23T05:10:25.324Z,23.10
2022-09-23T05:15:27.885Z,24.27
2022-09-23T05:20:31.641Z,28.45
2022-09-23T05:25:38.173Z,26.77
2022-09-23T05:30:40.868Z,21.20
2022-09-23T05:35:49.047Z,20.63
2022-09-23T05:40:58.559Z,17.38
2022-09-23T05:46:09.413Z,17.80
2022-09-23T05:51:16.101Z,16.98
2022-09-23T05:56:21.244Z,20.10
2022-09-23T06:01:26.333Z,18.35
2022-09-23T06:06:31.289Z,19.58
2022-09-23T06:11:35.487Z,22.67
2022-09-23T06:16:38.322Z,20.90
2022-09-23T06:21:41.624Z,21.10
2022-09-23T06:26:45.102Z,18.60
2022-09-23T06:31:49.471Z,19.38
2022-09-23T06:36:51.945Z,20.20
2022-09-23T06:41:54.439Z,21.30
2022-09-23T06:46:58.188Z,23.02
2022-09-23T06:52:01.335Z,20.40
2022-09-23T06:57:03.851Z,20.35
2022-09-23T07:02:06.806Z,20.27
2022-09-23T07:07:11.584Z,18.48
2022-09-23T07:12:14.144Z,17.48
2022-09-23T07:17:16.684Z,19.03
2022-09-23T07:22:19.227Z,18.05
2022-09-23T07:27:26.011Z,15.90
2022-09-23T07:32:32.108Z,17.08
2022-09-23T07:37:39.880Z,18.67
2022-09-23T07:42:42.093Z,14.68
2022-09-23T07:47:44.364Z,13.43
2022-09-23T07:52:46.744Z,14.43
2022-09-23T07:57:49.099Z,17.45
2022-09-23T08:02:53.251Z,14.73
2022-09-23T08:07:55.738Z,15.05
2022-09-23T08:12:58.941Z,13.82
2022-09-23T08:18:04.519Z,13.65
2022-09-23T08:23:09.830Z,14.85
2022-09-23T08:28:18.745Z,15.23
2022-09-23T08:33:23.507Z,13.35
2022-09-23T08:38:26.499Z,12.68
2022-09-23T08:48:42.311Z,12.40
2022-09-23T08:53:46.959Z,7.03
2022-09-23T08:59:00.278Z,8.02
2022-09-23T09:04:31.937Z,5.80
2022-09-23T09:09:40.230Z,6.53
2022-09-23T09:14:59.228Z,6.32
2022-09-23T09:20:07.818Z,4.85
2022-09-23T09:25:19.665Z,4.35
2022-09-23T09:30:32.340Z,3.63
2022-09-23T09:35:40.137Z,5.15
2022-09-23T09:40:48.287Z,3.92
2022-09-23T09:46:15.309Z,4.93
2022-09-23T09:51:22.756Z,2.50
2022-09-23T09:56:34.233Z,2.95
2022-09-23T10:01:37.002Z,2.37
2022-09-23T10:06:39.352Z,4.72
2022-09-23T10:11:42.685Z,2.22
2022-09-23T10:16:47.868Z,3.60
2022-09-23T10:21:57.053Z,1.85
2022-09-23T10:27:09.631Z,2.10
2022-09-23T10:37:30.041Z,1.55
2022-09-23T10:42:57.199Z,3.40
2022-09-23T10:47:59.715Z,2.25
2022-09-23T10:59:09.614Z,2.53
2022-09-23T11:04:42.222Z,2.53
2022-09-23T11:10:23.320Z,1.73
2022-09-23T11:15:52.766Z,1.88
2022-09-23T11:21:09.521Z,1.85
2022-09-23T11:26:47.790Z,2.25
2022-09-23T11:31:50.146Z,1.40
2022-09-23T11:37:06.612Z,2.10
2022-09-23T11:42:14.049Z,2.05
2022-09-23T11:47:29.694Z,1.75
2022-09-23T11:52:36.385Z,2.72
2022-09-23T11:57:48.834Z,2.00
2022-09-23T12:03:18.635Z,1.48
2022-09-23T12:08:32.869Z,2.25
2022-09-23T12:14:00.968Z,2.55
2022-09-23T12:19:11.183Z,1.83
2022-09-23T12:24:26.936Z,2.40
2022-09-23T12:29:30.534Z,3.72
2022-09-23T12:34:49.037Z,1.83
2022-09-23T12:39:51.479Z,2.42
2022-09-23T12:45:35.128Z,3.17
2022-09-23T12:50:49.450Z,3.78
2022-09-23T12:55:54.196Z,2.00
2022-09-23T13:01:19.699Z,4.00
2022-09-23T13:06:51.681Z,4.97
2022-09-23T13:11:59.985Z,16.95
2022-09-23T13:17:02.523Z,10.18
2022-09-23T13:22:11.215Z,21.95
2022-09-23T13:27:35.616Z,20.30
2022-09-23T13:32:42.900Z,6.55
2022-09-23T13:37:49.991Z,3.83
2022-09-23T13:43:03.739Z,4.18
2022-09-23T13:48:12.394Z,3.33
2022-09-23T13:53:25.248Z,4.82
2022-09-23T13:58:31.621Z,2.33
2022-09-23T14:03:39.018Z,3.03
2022-09-23T14:08:45.884Z,2.85
2022-09-23T14:13:54.281Z,3.47
2022-09-23T14:18:57.947Z,2.38
2022-09-23T14:24:15.796Z,1.98
2022-09-23T14:29:24.765Z,1.98
2022-09-23T14:34:42.339Z,1.75
2022-09-23T14:39:44.709Z,14.95
2022-09-23T14:44:50.571Z,12.77
2022-09-23T14:50:11.444Z,2.60
2022-09-23T14:55:17.922Z,1.85
2022-09-23T15:00:21.038Z,3.95
2022-09-23T15:05:31.679Z,3.50
2022-09-23T15:10:37.700Z,2.55
2022-09-23T15:15:41.492Z,4.18
2022-09-23T15:20:50.785Z,8.82
2022-09-23T15:25:53.284Z,5.00
2022-09-23T15:30:56.703Z,13.32
2022-09-23T15:35:59.057Z,7.10
2022-09-23T15:41:01.327Z,7.83
2022-09-23T15:46:09.109Z,4.03
2022-09-23T15:51:14.812Z,4.60
2022-09-23T15:56:17.353Z,8.05
2022-09-23T16:01:26.984Z,10.00
2022-09-23T16:06:29.549Z,20.63
2022-09-23T16:11:32.930Z,16.92
2022-09-23T16:21:38.028Z,15.88
2022-09-23T16:26:40.906Z,10.63
2022-09-23T16:31:43.440Z,17.55
2022-09-23T16:36:46.306Z,49.37
2022-09-23T16:41:48.734Z,150.95
2022-09-23T16:46:51.237Z,226.17
2022-09-23T16:51:54.902Z,296.93
2022-09-23T16:56:57.736Z,288.83
2022-09-23T17:02:19.094Z,252.00
2022-09-23T17:07:21.438Z,198.38
2022-09-23T17:12:28.027Z,146.23
2022-09-23T17:17:30.598Z,114.68
2022-09-23T17:22:33.874Z,90.73
2022-09-23T17:32:39.944Z,40.15
2022-09-23T17:37:42.379Z,26.27
2022-09-23T17:42:44.880Z,23.17
2022-09-23T17:47:51.539Z,16.55
2022-09-23T17:52:55.007Z,13.55
2022-09-23T17:57:57.344Z,11.63
2022-09-23T18:02:59.878Z,11.10
2022-09-23T18:08:05.924Z,11.85
2022-09-23T18:13:08.529Z,10.43
2022-09-23T18:18:13.554Z,10.63
2022-09-23T18:23:15.885Z,9.30
2022-09-23T18:28:18.482Z,8.75
2022-09-23T18:33:22.775Z,9.88
2022-09-23T18:38:25.193Z,10.55
2022-09-23T18:43:37.264Z,11.57
2022-09-23T18:49:01.143Z,10.70
2022-09-23T18:54:05.917Z,10.35
2022-09-23T18:59:12.271Z,10.75
2022-09-23T19:04:17.004Z,12.32
2022-09-23T19:09:20.101Z,11.90
2022-09-23T19:14:22.543Z,14.13
2022-09-23T19:19:25.430Z,13.10
2022-09-23T19:24:28.420Z,14.45
2022-09-23T19:29:31.147Z,14.30
2022-09-23T19:34:34.978Z,18.42
2022-09-23T19:39:37.771Z,14.73
2022-09-23T19:44:41.205Z,20.50
2022-09-23T19:49:43.529Z,18.40
2022-09-23T19:54:48.875Z,19.52
2022-09-23T19:59:51.309Z,23.65
2022-09-23T20:04:53.796Z,25.00
2022-09-23T20:09:56.147Z,24.35
2022-09-23T20:14:58.403Z,24.27
2022-09-23T20:20:00.935Z,23.67
2022-09-23T20:25:04.944Z,23.90
2022-09-23T20:35:10.339Z,24.20
2022-09-23T20:40:12.839Z,26.65
2022-09-23T20:45:16.911Z,24.45
2022-09-23T20:50:19.628Z,29.27
2022-09-23T20:55:21.837Z,24.95
2022-09-23T21:00:24.214Z,22.77
2022-09-23T21:05:26.846Z,25.67
2022-09-23T21:10:29.098Z,20.05
2022-09-23T21:15:32.555Z,21.75
2022-09-23T21:20:34.968Z,23.42
2022-09-23T21:25:37.736Z,17.65
2022-09-23T21:30:40.191Z,19.07
2022-09-23T21:35:42.842Z,17.58
2022-09-23T21:40:57.592Z,25.27
2022-09-23T21:46:02.802Z,37.80
2022-09-23T21:51:08.304Z,65.32
2022-09-23T21:56:16.774Z,53.35
2022-09-23T22:01:24.402Z,47.95
2022-09-23T22:06:28.335Z,48.10
2022-09-23T22:11:51.192Z,40.45
2022-09-23T22:16:59.256Z,47.97
2022-09-23T22:22:03.166Z,41.38
2022-09-23T22:27:07.750Z,31.38
2022-09-23T22:32:30.723Z,26.67
2022-09-23T22:37:35.271Z,20.30
2022-09-23T22:42:37.806Z,23.33
2022-09-23T22:47:44.161Z,24.37
2022-09-23T22:52:46.770Z,26.02
2022-09-23T22:57:50.663Z,23.05
2022-09-23T23:02:52.975Z,21.52
2022-09-23T23:07:56.275Z,23.75
2022-09-23T23:12:59.198Z,24.60
2022-09-23T23:18:01.444Z,43.93
2022-09-23T23:23:03.753Z,34.25
2022-09-23T23:28:06.206Z,31.52
2022-09-23T23:33:08.971Z,28.70
2022-09-23T23:38:12.680Z,38.65
2022-09-23T23:43:15.019Z,83.75
2022-09-23T23:48:20.666Z,77.45
2022-09-23T23:53:24.521Z,52.60
2022-09-23T23:58:28.018Z,37.42
